x

Buzzards Bay, Ma (buzm3) Weather Station

3:00am - Fri 20th Jan 2017 All times are EST. -5 hours from GMT.

  • Wind
    7mph, 8mph gusts
  • 空気 Temp 40°f
  • Sea Pressure 1016.7mb
  • Buzzards Bay, Ma
  • Buzzards Bay, Ma

More Historic Weather Station data

Upgrade to MSW Pro to gain access to the past 30 days of data for over 8000 Wavebouys and Weather Stations around the globe.

Join Pro

Comparision Forecast

View Surf forecast
   
Fri 01/20 3:00am 7 8 mph 1016.7mb 40f
2:00am 7 8 mph 1016.4mb 40f
1:00am 11 13 mph 1016.1mb 40f
12:00am 14 15 mph 1015.6mb 40f
Thu 01/19 11:00pm 9
mph
1016.5mb 42f
10:00pm 10 11 mph 1017.1mb 43f
9:00pm 7
mph
1017.1mb 42f
8:00pm 8 9 mph 1016.7mb 42f
7:00pm 2
mph
1016.1mb 43f
6:00pm 3
mph
1015.3mb 43f
5:00pm 7
mph
1014.6mb 43f
4:00pm 14
mph
1014.4mb 44f
3:00pm 7 8 mph 1014.1mb 44f
2:00pm 5 6 mph 1014.1mb 43f
1:00pm 9 10 mph 1014.3mb 41f
12:00pm 11 13 mph 1014.8mb 40f
11:00am 11 13 mph 1016mb 39f
10:00am 5
mph
1016.8mb 38f
9:00am 3 5 mph 1016.8mb 38f
8:00am 5
mph
1016.5mb 36f
7:00am 9 10 mph 1016.6mb 35f
6:00am 9
mph
1016.3mb 35f
5:00am 9 10 mph 1016.1mb 36f
4:00am 10 11 mph 1015.9mb 36f
3:00am 11
mph
1015.8mb 37f
2:00am 14 15 mph 1016.1mb 37f
1:00am 15 16 mph 1015.4mb 37f
12:00am 14 15 mph 1015.8mb 39f
Wed 01/18 11:00pm 13 14 mph 1015mb 39f
10:00pm 15 16 mph 1015.4mb 39f
9:00pm 15 17 mph 1016.3mb 39f
8:00pm 16 18 mph 1016mb 40f
7:00pm 16 17 mph 1015.9mb 39f
6:00pm 16 18 mph 1015.2mb 39f
5:00pm 18 21 mph 1014.1mb 39f
4:00pm 20 22 mph 1013.8mb 40f
3:00pm 22 24 mph 1013.1mb 40f
2:00pm 20 22 mph 1012.3mb 40f
1:00pm 20 22 mph 1011.7mb 40f
12:00pm 21 22 mph 1011.7mb 39f
11:00am 18 21 mph 1013mb 39f
10:00am 20 22 mph 1013.7mb 39f
9:00am 18 21 mph 1013.3mb 39f
8:00am 21 22 mph 1013.2mb 39f
7:00am 22 24 mph 1013.4mb 39f
6:00am 21 23 mph 1013.6mb 40f
5:00am 23 25 mph 1013.4mb 39f
4:00am 22 25 mph 1014.3mb 39f
3:00am 20 22 mph 1014.5mb 40f
2:00am 21 23 mph 1015.4mb 40f
1:00am 20 22 mph 1016.2mb 40f
12:00am 18 20 mph 1017.8mb 40f
Tue 01/17 11:00pm 21 24 mph 1018mb 40f
10:00pm 21 23 mph 1019.1mb 41f
9:00pm 15 17 mph 1020.2mb 40f
8:00pm 11 13 mph 1021.1mb 40f
7:00pm 15 16 mph 1020.8mb 39f
6:00pm 13 14 mph 1021.3mb 39f
5:00pm 8 9 mph 1021.9mb 39f
4:00pm 9
mph
1021.9mb 39f
3:00pm 7 8 mph 1022.1mb 39f
2:00pm 10
mph
1022.2mb 38f
1:00pm 10 11 mph 1022.5mb 37f
12:00pm 10 11 mph 1023.5mb 38f
11:00am 9 10 mph 1024.1mb 38f
10:00am 6 7 mph 1024.7mb 38f
9:00am 7 8 mph 1024.6mb 39f
8:00am 9 10 mph 1024.1mb 39f
7:00am 13 14 mph 1023.5mb 40f
6:00am 15 17 mph 1023.5mb 39f
5:00am 15 17 mph 1023.3mb 39f
4:00am 20 21 mph 1023.3mb 39f
3:00am 22 24 mph 1023.3mb 40f
2:00am 20 22 mph 1023.8mb 40f
1:00am 18 21 mph 1023.9mb 40f
12:00am 21 23 mph 1024.6mb 40f
Mon 01/16 11:00pm 24 26 mph 1025.1mb 39f
10:00pm 21 22 mph 1025.9mb 39f
9:00pm 23 24 mph 1026.3mb 39f
8:00pm 20 21 mph 1026.7mb 39f
7:00pm 22 23 mph 1027mb 39f
6:00pm 25 26 mph 1026.7mb 38f
5:00pm 23 24 mph 1027.2mb 38f
4:00pm 23 24 mph 1027.3mb 37f
3:00pm 21 23 mph 1027.5mb 37f
2:00pm 23 24 mph 1027.9mb 37f
1:00pm 20 22 mph 1028.6mb 37f
12:00pm 15 17 mph 1029.4mb 38f
11:00am 9 10 mph 1030.5mb 36f
10:00am 14 15 mph 1031.1mb 38f